Time;durP1;ratioP1;P1;durP2;ratioP2;P2;SDS_P1;SDS_P2;PMS_P1;PMS_P2;Temp;Humidity;BMP_temperature;BMP_pressure;BME280_temperature;BME280_humidity;BME280_pressure;Samples;Min_cycle;Max_cycle;Signal;HPM_P1;HPM_P2
2023/08/09 00:00:32;;;;;;;0.40;0.40;;;21.40;72.70;;;;;;6303624;22;20261;-84
2023/08/09 00:03:01;;;;;;;0.30;0.30;;;21.30;72.70;;;;;;6303360;22;20169;-85
2023/08/09 00:05:31;;;;;;;0.63;0.57;;;21.30;72.80;;;;;;6303312;22;20172;-85
2023/08/09 00:08:00;;;;;;;0.30;0.30;;;21.30;72.70;;;;;;6302785;22;20189;-85
2023/08/09 00:10:29;;;;;;;0.20;0.20;;;21.30;72.70;;;;;;6303512;22;20248;-84
2023/08/09 00:12:57;;;;;;;0.68;0.30;;;21.30;72.70;;;;;;6306235;22;20161;-85
2023/08/09 00:15:26;;;;;;;0.30;0.30;;;21.20;72.70;;;;;;6305205;22;20231;-85
2023/08/09 00:17:54;;;;;;;0.40;0.40;;;21.20;72.70;;;;;;6305445;22;20169;-85
2023/08/09 00:20:23;;;;;;;0.20;0.20;;;21.20;72.90;;;;;;6306333;22;20248;-85
2023/08/09 00:22:53;;;;;;;0.20;0.20;;;21.10;73.20;;;;;;6306662;22;20242;-85
2023/08/09 00:25:21;;;;;;;0.20;0.20;;;21.10;73.30;;;;;;6306508;22;20156;-85
2023/08/09 00:27:50;;;;;;;0.90;0.43;;;21.10;73.50;;;;;;6304460;22;20204;-85
2023/08/09 00:30:19;;;;;;;0.20;0.20;;;21.00;73.90;;;;;;6305718;22;20605;-84
2023/08/09 00:32:48;;;;;;;1.17;0.55;;;21.00;73.70;;;;;;6306922;22;20168;-85
2023/08/09 00:35:16;;;;;;;0.65;0.40;;;20.90;73.80;;;;;;6305451;22;20173;-84
2023/08/09 00:37:45;;;;;;;0.20;0.20;;;20.90;73.90;;;;;;6304488;22;20657;-84
2023/08/09 00:40:15;;;;;;;0.20;0.20;;;20.90;74.00;;;;;;6304178;22;20165;-84
2023/08/09 00:42:43;;;;;;;0.20;0.20;;;20.80;73.90;;;;;;6304790;22;20176;-84
2023/08/09 00:45:12;;;;;;;0.20;0.20;;;20.80;74.00;;;;;;6304465;22;20161;-84
2023/08/09 00:47:40;;;;;;;0.20;0.20;;;20.80;74.00;;;;;;6305893;22;20199;-84
2023/08/09 00:50:11;;;;;;;0.25;0.25;;;20.80;74.10;;;;;;6306118;22;20176;-85
2023/08/09 00:52:40;;;;;;;0.20;0.20;;;20.80;74.20;;;;;;6305385;22;20150;-83
2023/08/09 00:55:09;;;;;;;0.35;0.35;;;20.70;74.70;;;;;;6304851;22;20165;-84
2023/08/09 00:57:39;;;;;;;0.40;0.40;;;20.70;74.90;;;;;;6303508;22;20508;-84
2023/08/09 01:00:09;;;;;;;0.22;0.22;;;20.70;75.00;;;;;;6305710;22;20709;-87
2023/08/09 01:02:38;;;;;;;0.20;0.20;;;20.60;75.00;;;;;;6306164;22;20217;-86
2023/08/09 01:05:07;;;;;;;0.30;0.20;;;20.60;75.10;;;;;;6305558;22;20195;-85
2023/08/09 01:07:41;;;;;;;0.35;0.35;;;20.60;75.20;;;;;;6303798;22;20611;-85
2023/08/09 01:10:15;;;;;;;0.20;0.20;;;20.60;75.10;;;;;;6304579;22;20662;-86
2023/08/09 01:12:53;;;;;;;0.30;0.30;;;20.50;75.10;;;;;;6306824;22;20160;-87
2023/08/09 01:15:22;;;;;;;0.20;0.20;;;20.50;75.20;;;;;;6304786;22;20161;-86
2023/08/09 01:17:53;;;;;;;1.08;0.68;;;20.50;75.30;;;;;;6305988;22;20169;-85
2023/08/09 01:20:23;;;;;;;0.30;0.30;;;20.50;75.30;;;;;;6302992;22;20187;-84
2023/08/09 01:22:59;;;;;;;0.30;0.30;;;20.50;75.30;;;;;;6304701;22;20165;-85
2023/08/09 01:25:30;;;;;;;0.30;0.30;;;20.50;75.60;;;;;;6303987;22;20674;-85
2023/08/09 01:28:00;;;;;;;2.00;0.40;;;20.50;75.50;;;;;;6302286;22;20485;-85
2023/08/09 01:30:28;;;;;;;0.52;0.50;;;20.40;75.60;;;;;;6304319;22;20169;-85
2023/08/09 01:32:57;;;;;;;0.40;0.40;;;20.40;75.90;;;;;;6302151;22;20227;-85
2023/08/09 01:35:27;;;;;;;0.20;0.20;;;20.40;76.00;;;;;;6299399;22;20210;-83
2023/08/09 01:38:03;;;;;;;0.20;0.20;;;20.40;76.00;;;;;;6303828;22;20162;-85
2023/08/09 01:40:33;;;;;;;0.30;0.30;;;20.30;75.90;;;;;;6300832;22;20160;-84
2023/08/09 01:43:03;;;;;;;0.20;0.20;;;20.30;76.10;;;;;;6304319;22;20172;-86
2023/08/09 01:45:32;;;;;;;0.30;0.30;;;20.30;76.20;;;;;;6303642;22;20165;-85
2023/08/09 01:48:00;;;;;;;0.52;0.52;;;20.20;76.20;;;;;;6305234;22;20166;-84
2023/08/09 01:50:29;;;;;;;0.20;0.20;;;20.20;76.30;;;;;;6305499;22;20189;-86
2023/08/09 01:52:58;;;;;;;0.33;0.30;;;20.20;76.30;;;;;;6304620;22;20488;-85
2023/08/09 01:55:27;;;;;;;0.20;0.20;;;20.20;76.40;;;;;;6305118;22;20189;-84
2023/08/09 01:57:57;;;;;;;0.87;0.83;;;20.20;76.30;;;;;;6304040;22;20868;-84
2023/08/09 02:00:27;;;;;;;0.20;0.20;;;20.20;76.30;;;;;;6304308;22;20632;-84
2023/08/09 02:02:56;;;;;;;0.40;0.40;;;20.20;76.40;;;;;;6305053;22;20150;-84
2023/08/09 02:05:25;;;;;;;0.20;0.20;;;20.20;76.30;;;;;;6304913;22;20169;-85
2023/08/09 02:07:54;;;;;;;0.25;0.25;;;20.10;76.30;;;;;;6303864;22;20172;-85
2023/08/09 02:10:22;;;;;;;2.38;0.65;;;20.20;76.30;;;;;;6304666;22;20193;-83
2023/08/09 02:12:51;;;;;;;0.20;0.20;;;20.10;76.30;;;;;;6304121;22;20248;-84
2023/08/09 02:15:21;;;;;;;0.20;0.20;;;20.10;76.50;;;;;;6303601;22;20169;-84
2023/08/09 02:17:51;;;;;;;0.20;0.20;;;20.10;76.50;;;;;;6304800;22;20165;-84
2023/08/09 02:20:20;;;;;;;0.20;0.20;;;20.00;76.60;;;;;;6302740;22;20166;-86
2023/08/09 02:22:49;;;;;;;0.63;0.63;;;20.00;76.70;;;;;;6303863;22;20166;-82
2023/08/09 02:25:18;;;;;;;0.32;0.32;;;20.00;76.70;;;;;;6304153;22;20206;-85
2023/08/09 02:27:47;;;;;;;2.08;0.55;;;20.00;76.70;;;;;;6302948;22;20204;-84
2023/08/09 02:30:15;;;;;;;0.27;0.27;;;20.00;76.80;;;;;;6304443;22;20196;-84
2023/08/09 02:32:45;;;;;;;0.40;0.40;;;20.00;76.70;;;;;;6302739;22;20693;-86
2023/08/09 02:35:15;;;;;;;1.08;0.55;;;20.00;76.70;;;;;;6305403;22;20154;-84
2023/08/09 02:37:43;;;;;;;0.93;0.67;;;20.00;76.60;;;;;;6305340;22;20161;-83
2023/08/09 02:40:12;;;;;;;0.57;0.57;;;20.00;76.70;;;;;;6304604;22;20165;-85
2023/08/09 02:42:41;;;;;;;0.40;0.30;;;20.00;76.80;;;;;;6304273;22;20169;-85
2023/08/09 02:45:10;;;;;;;0.40;0.40;;;19.90;76.80;;;;;;6304121;22;20169;-85
2023/08/09 02:47:39;;;;;;;0.20;0.20;;;19.90;76.80;;;;;;6303928;22;20165;-85
2023/08/09 02:50:09;;;;;;;1.03;0.27;;;19.90;76.90;;;;;;6304178;22;20272;-84
2023/08/09 02:52:38;;;;;;;0.17;0.17;;;19.90;76.90;;;;;;6304646;22;20234;-84
2023/08/09 02:55:09;;;;;;;0.93;0.60;;;19.90;76.90;;;;;;6303157;22;20165;-85
2023/08/09 02:57:38;;;;;;;0.20;0.20;;;19.90;77.10;;;;;;6304191;22;20180;-85
2023/08/09 03:00:08;;;;;;;0.67;0.50;;;19.80;77.10;;;;;;6305556;22;20504;-82
2023/08/09 03:02:36;;;;;;;0.30;0.30;;;19.80;77.10;;;;;;6302902;22;20216;-83
2023/08/09 03:05:06;;;;;;;0.20;0.20;;;19.80;77.10;;;;;;6304790;22;20165;-85
2023/08/09 03:07:36;;;;;;;0.40;0.40;;;19.80;77.20;;;;;;6303331;22;20172;-82
2023/08/09 03:10:06;;;;;;;1.40;0.40;;;19.70;77.30;;;;;;6304944;22;20279;-85
2023/08/09 03:12:35;;;;;;;0.20;0.20;;;19.70;77.30;;;;;;6304810;22;20639;-85
2023/08/09 03:15:05;;;;;;;0.30;0.30;;;19.70;77.40;;;;;;6302719;22;20167;-87
2023/08/09 03:17:34;;;;;;;2.23;0.67;;;19.70;77.40;;;;;;6304358;22;20204;-84
2023/08/09 03:20:08;;;;;;;0.23;0.23;;;19.70;77.20;;;;;;6303177;22;20169;-84
2023/08/09 03:22:38;;;;;;;0.60;0.60;;;19.60;77.00;;;;;;6303016;22;20270;-84
2023/08/09 03:25:07;;;;;;;0.30;0.30;;;19.60;77.20;;;;;;6303535;22;20162;-84
2023/08/09 03:27:36;;;;;;;0.20;0.20;;;19.60;77.30;;;;;;6303541;22;20542;-85
2023/08/09 03:30:06;;;;;;;0.73;0.70;;;19.60;77.50;;;;;;6302575;22;20254;-84
2023/08/09 03:32:35;;;;;;;0.20;0.20;;;19.60;77.50;;;;;;6302527;22;20168;-84
2023/08/09 03:35:04;;;;;;;0.30;0.30;;;19.60;77.60;;;;;;6303617;22;20162;-84
2023/08/09 03:37:33;;;;;;;0.53;0.50;;;19.60;77.50;;;;;;6302335;22;20660;-82
2023/08/09 03:40:03;;;;;;;0.70;0.70;;;19.60;77.50;;;;;;6303528;22;20172;-84
2023/08/09 03:42:32;;;;;;;0.30;0.30;;;19.50;77.60;;;;;;6303071;22;20184;-84
2023/08/09 03:45:00;;;;;;;0.20;0.20;;;19.50;77.60;;;;;;6304134;22;20173;-84
2023/08/09 03:47:29;;;;;;;0.20;0.20;;;19.50;77.80;;;;;;6303938;22;20251;-83
2023/08/09 03:49:57;;;;;;;0.20;0.20;;;19.50;77.70;;;;;;6301982;22;20658;-83
2023/08/09 03:52:26;;;;;;;0.20;0.20;;;19.50;77.80;;;;;;6302508;22;20211;-83
2023/08/09 03:54:55;;;;;;;0.60;0.43;;;19.50;77.90;;;;;;6303509;22;20639;-84
2023/08/09 03:57:27;;;;;;;0.50;0.50;;;19.50;77.90;;;;;;6303920;22;20211;-83
2023/08/09 03:59:55;;;;;;;0.20;0.20;;;19.60;77.90;;;;;;6302856;22;20546;-84
2023/08/09 04:02:24;;;;;;;0.70;0.47;;;19.50;78.00;;;;;;6303191;22;20240;-84
2023/08/09 04:04:56;;;;;;;0.20;0.20;;;19.50;77.90;;;;;;6302227;22;20205;-84
2023/08/09 04:07:25;;;;;;;0.40;0.40;;;19.60;78.00;;;;;;6303004;22;20153;-84
2023/08/09 04:09:54;;;;;;;0.50;0.30;;;19.60;77.90;;;;;;6303430;22;20207;-84
2023/08/09 04:12:25;;;;;;;0.30;0.30;;;19.60;77.90;;;;;;6305621;22;20530;-85
2023/08/09 04:14:53;;;;;;;0.20;0.20;;;19.60;77.80;;;;;;6305875;22;20176;-85
2023/08/09 04:17:21;;;;;;;0.20;0.20;;;19.60;77.90;;;;;;6304935;22;20586;-83
2023/08/09 04:19:50;;;;;;;0.60;0.33;;;19.60;78.00;;;;;;6304879;22;20500;-84
2023/08/09 04:22:18;;;;;;;0.40;0.40;;;19.60;77.90;;;;;;6305890;22;20165;-86
2023/08/09 04:24:47;;;;;;;0.20;0.20;;;19.60;78.00;;;;;;6304030;22;20216;-85
2023/08/09 04:27:17;;;;;;;0.28;0.28;;;19.70;78.00;;;;;;6303258;22;20395;-84
2023/08/09 04:29:47;;;;;;;0.20;0.20;;;19.70;78.30;;;;;;6305674;22;20189;-84
2023/08/09 04:32:16;;;;;;;0.40;0.40;;;19.80;78.30;;;;;;6304804;22;20613;-82
2023/08/09 04:34:44;;;;;;;0.30;0.30;;;19.80;78.20;;;;;;6304855;22;20161;-84
2023/08/09 04:37:13;;;;;;;0.30;0.30;;;19.80;78.40;;;;;;6304940;22;20680;-84
2023/08/09 04:39:41;;;;;;;0.70;0.57;;;19.80;78.50;;;;;;6304457;22;20218;-82
2023/08/09 04:42:10;;;;;;;0.20;0.20;;;19.80;78.60;;;;;;6303418;22;20245;-84
2023/08/09 04:44:38;;;;;;;1.87;0.50;;;19.80;78.40;;;;;;6305425;22;20244;-83
2023/08/09 04:47:09;;;;;;;1.17;0.77;;;19.90;78.30;;;;;;6305235;22;20161;-85
2023/08/09 04:49:38;;;;;;;0.40;0.40;;;20.00;78.40;;;;;;6304947;22;20614;-87
2023/08/09 04:52:09;;;;;;;0.20;0.20;;;20.00;78.40;;;;;;6303900;22;20161;-85
2023/08/09 04:54:37;;;;;;;0.77;0.77;;;20.00;78.20;;;;;;6305071;22;20165;-85
2023/08/09 04:57:06;;;;;;;0.20;0.20;;;20.10;78.10;;;;;;6302451;22;20493;-84
2023/08/09 04:59:34;;;;;;;0.30;0.30;;;20.10;78.10;;;;;;6307080;22;20188;-85
2023/08/09 05:02:05;;;;;;;0.43;0.43;;;20.10;78.00;;;;;;6305608;22;20165;-84
2023/08/09 05:04:36;;;;;;;0.30;0.30;;;20.20;78.00;;;;;;6303085;22;20299;-84
2023/08/09 05:07:05;;;;;;;0.30;0.30;;;20.30;78.00;;;;;;6304868;22;20641;-82
2023/08/09 05:09:35;;;;;;;0.63;0.63;;;20.30;77.90;;;;;;6306302;22;20192;-85
2023/08/09 05:12:03;;;;;;;0.30;0.30;;;20.40;77.80;;;;;;6305703;22;20168;-84
2023/08/09 05:14:32;;;;;;;0.38;0.30;;;20.40;77.80;;;;;;6306691;22;20169;-85
2023/08/09 05:17:00;;;;;;;0.63;0.40;;;20.50;77.70;;;;;;6305848;22;20172;-85
2023/08/09 05:19:29;;;;;;;0.38;0.38;;;20.60;77.70;;;;;;6307343;22;20172;-84
2023/08/09 05:21:59;;;;;;;0.43;0.30;;;20.60;77.70;;;;;;6306949;22;20606;-83
2023/08/09 05:24:28;;;;;;;0.55;0.50;;;20.70;77.70;;;;;;6305105;22;20165;-83
2023/08/09 05:26:56;;;;;;;0.30;0.30;;;20.80;77.70;;;;;;6301237;22;20675;-83
2023/08/09 05:29:25;;;;;;;0.45;0.45;;;20.80;77.60;;;;;;6302941;22;20180;-86
2023/08/09 05:31:53;;;;;;;0.28;0.28;;;20.90;77.40;;;;;;6306684;22;20668;-84
2023/08/09 05:34:25;;;;;;;0.70;0.30;;;21.00;77.30;;;;;;6308601;22;20161;-84
2023/08/09 05:36:54;;;;;;;0.30;0.30;;;21.10;77.20;;;;;;6309973;22;20205;-82
2023/08/09 05:39:25;;;;;;;0.30;0.30;;;21.20;77.10;;;;;;6306996;22;20564;-83
2023/08/09 05:41:54;;;;;;;0.90;0.60;;;21.30;77.00;;;;;;6308266;22;20252;-83
2023/08/09 05:44:22;;;;;;;0.50;0.50;;;21.30;76.90;;;;;;6307089;22;20204;-82
2023/08/09 05:46:51;;;;;;;0.20;0.20;;;21.40;76.80;;;;;;6307444;22;20169;-84
2023/08/09 05:49:19;;;;;;;0.30;0.30;;;21.50;76.70;;;;;;6305884;22;20254;-83
2023/08/09 05:51:48;;;;;;;0.20;0.20;;;21.60;76.50;;;;;;6304359;22;20211;-85
2023/08/09 05:54:16;;;;;;;0.20;0.20;;;21.70;76.40;;;;;;6306417;22;20176;-83
2023/08/09 05:56:46;;;;;;;0.20;0.20;;;21.80;76.10;;;;;;6306629;22;20165;-82
2023/08/09 05:59:15;;;;;;;0.10;0.10;;;21.80;75.80;;;;;;6306012;22;20510;-82
2023/08/09 06:01:43;;;;;;;0.82;0.20;;;21.90;75.80;;;;;;6305137;22;20176;-81
2023/08/09 06:04:12;;;;;;;0.20;0.20;;;22.00;75.70;;;;;;6306573;22;20169;-82
2023/08/09 06:06:40;;;;;;;0.20;0.20;;;22.10;76.30;;;;;;6305961;22;20165;-81
2023/08/09 06:09:10;;;;;;;0.20;0.20;;;22.20;75.00;;;;;;6305532;22;20613;-82
2023/08/09 06:11:39;;;;;;;0.20;0.20;;;22.30;74.40;;;;;;6306011;22;20541;-81
2023/08/09 06:14:10;;;;;;;0.30;0.30;;;22.40;73.90;;;;;;6301703;22;20544;-83
2023/08/09 06:16:38;;;;;;;0.30;0.30;;;22.50;73.50;;;;;;6306110;22;20169;-85
2023/08/09 06:19:08;;;;;;;0.20;0.20;;;22.60;73.00;;;;;;6306872;22;20606;-82
2023/08/09 06:21:36;;;;;;;0.20;0.20;;;22.70;72.70;;;;;;6306226;22;20884;-83
2023/08/09 06:24:06;;;;;;;0.20;0.20;;;22.80;72.20;;;;;;6306310;22;20244;-81
2023/08/09 06:26:34;;;;;;;0.20;0.20;;;22.90;71.70;;;;;;6305878;22;20165;-84
2023/08/09 06:29:04;;;;;;;0.15;0.15;;;22.90;70.70;;;;;;6305664;22;20668;-82
2023/08/09 06:31:35;;;;;;;0.20;0.20;;;23.00;71.00;;;;;;6307755;22;20192;-83
2023/08/09 06:34:03;;;;;;;0.95;0.35;;;23.10;70.70;;;;;;6305728;22;20169;-83
2023/08/09 06:36:32;;;;;;;0.20;0.20;;;23.20;69.20;;;;;;6305405;22;20507;-83
2023/08/09 06:39:00;;;;;;;0.20;0.20;;;23.30;69.40;;;;;;6303216;22;20171;-83
2023/08/09 06:41:29;;;;;;;0.50;0.50;;;23.40;69.10;;;;;;6304749;22;20175;-83
2023/08/09 06:43:57;;;;;;;0.30;0.30;;;23.50;69.10;;;;;;6302058;22;20686;-83
2023/08/09 06:46:26;;;;;;;0.20;0.20;;;23.60;69.10;;;;;;6304608;22;20161;-85
2023/08/09 06:48:58;;;;;;;0.20;0.20;;;23.60;67.90;;;;;;6305541;22;20223;-84
2023/08/09 06:51:29;;;;;;;0.30;0.30;;;23.70;67.70;;;;;;6305876;22;20196;-84
2023/08/09 06:53:58;;;;;;;0.15;0.15;;;23.80;66.90;;;;;;6305920;22;20160;-84
2023/08/09 06:56:26;;;;;;;0.20;0.20;;;23.90;66.70;;;;;;6304553;22;20179;-85
2023/08/09 06:58:55;;;;;;;0.38;0.38;;;24.00;66.80;;;;;;6304773;22;20165;-83
2023/08/09 07:01:23;;;;;;;0.20;0.20;;;24.00;66.50;;;;;;6302967;22;20414;-83
2023/08/09 07:03:53;;;;;;;0.30;0.30;;;24.10;66.30;;;;;;6303511;22;20173;-83
2023/08/09 07:06:25;;;;;;;0.40;0.20;;;24.10;64.40;;;;;;6305496;22;20187;-83
2023/08/09 07:08:56;;;;;;;0.20;0.20;;;24.20;64.30;;;;;;6305525;22;20237;-83
2023/08/09 07:11:25;;;;;;;1.17;0.82;;;24.30;64.30;;;;;;6305633;22;20602;-83
2023/08/09 07:13:54;;;;;;;0.40;0.40;;;24.30;64.00;;;;;;6307204;22;20160;-84
2023/08/09 07:16:22;;;;;;;0.20;0.20;;;24.40;63.60;;;;;;6279532;22;20169;-84
2023/08/09 07:18:52;;;;;;;0.20;0.20;;;24.50;63.90;;;;;;6305351;22;20618;-86
2023/08/09 07:21:21;;;;;;;0.13;0.13;;;24.50;64.10;;;;;;6304640;22;20169;-85
2023/08/09 07:23:51;;;;;;;0.28;0.28;;;24.60;63.20;;;;;;6304880;22;20169;-84
2023/08/09 07:26:25;;;;;;;0.20;0.20;;;24.60;63.50;;;;;;6305764;22;20569;-84
2023/08/09 07:28:54;;;;;;;0.15;0.15;;;24.70;63.10;;;;;;6305073;22;20165;-86
2023/08/09 07:31:24;;;;;;;0.20;0.20;;;24.80;63.20;;;;;;6306263;22;20193;-84
2023/08/09 07:33:53;;;;;;;0.30;0.30;;;24.80;63.00;;;;;;6304135;22;20240;-85
2023/08/09 07:36:22;;;;;;;0.20;0.20;;;24.80;61.90;;;;;;6305460;22;20165;-85
2023/08/09 07:38:58;;;;;;;0.98;0.80;;;24.80;61.80;;;;;;6279163;22;20483;-84
2023/08/09 07:41:27;;;;;;;0.30;0.30;;;24.90;61.60;;;;;;6306179;22;20187;-86
2023/08/09 07:43:57;;;;;;;1.65;1.15;;;25.00;61.60;;;;;;6275906;22;20177;-85
2023/08/09 07:46:27;;;;;;;0.50;0.50;;;25.00;61.80;;;;;;6304961;22;20157;-86
2023/08/09 07:49:03;;;;;;;0.25;0.25;;;25.10;61.90;;;;;;6304037;22;20176;-83
2023/08/09 07:51:31;;;;;;;0.35;0.30;;;25.10;62.00;;;;;;6305539;22;20181;-85
2023/08/09 07:54:02;;;;;;;0.20;0.20;;;25.20;61.60;;;;;;6278372;22;20230;-85
2023/08/09 07:56:31;;;;;;;0.20;0.20;;;25.20;61.50;;;;;;6279050;22;20188;-86
2023/08/09 07:58:59;;;;;;;6.03;0.73;;;25.30;61.70;;;;;;6305674;22;20161;-85
2023/08/09 08:01:28;;;;;;;0.20;0.20;;;25.30;61.60;;;;;;6304954;22;20598;-80
2023/08/09 08:03:56;;;;;;;0.20;0.20;;;25.40;61.70;;;;;;6305437;22;20177;-82
2023/08/09 08:06:25;;;;;;;0.55;0.40;;;25.40;60.50;;;;;;6305029;22;20653;-82
2023/08/09 08:08:56;;;;;;;0.20;0.20;;;25.40;60.70;;;;;;6302865;22;20173;-83
2023/08/09 08:11:26;;;;;;;0.13;0.13;;;25.50;60.90;;;;;;6302205;22;20161;-81
2023/08/09 08:13:54;;;;;;;0.20;0.20;;;25.60;60.60;;;;;;6304963;22;20586;-81
2023/08/09 08:16:23;;;;;;;0.20;0.20;;;25.60;60.70;;;;;;6305772;22;20215;-84
2023/08/09 08:18:51;;;;;;;0.15;0.15;;;25.60;60.80;;;;;;6278372;22;20245;-83
2023/08/09 08:21:20;;;;;;;0.40;0.40;;;25.70;60.90;;;;;;6304682;22;20169;-83
2023/08/09 08:23:49;;;;;;;0.20;0.20;;;25.70;60.50;;;;;;6304830;22;20168;-82
2023/08/09 08:26:18;;;;;;;0.30;0.30;;;25.80;60.40;;;;;;6277224;22;20169;-83
2023/08/09 08:28:48;;;;;;;0.75;0.40;;;25.90;60.70;;;;;;6304975;22;20171;-84
2023/08/09 08:31:19;;;;;;;0.20;0.20;;;25.90;60.40;;;;;;6304768;22;20492;-83
2023/08/09 08:33:49;;;;;;;0.13;0.13;;;26.00;60.50;;;;;;6306184;22;20161;-83
2023/08/09 08:36:22;;;;;;;0.30;0.30;;;26.00;59.50;;;;;;6309162;22;20229;-83
2023/08/09 08:38:59;;;;;;;0.20;0.20;;;26.00;59.20;;;;;;6310516;22;20189;-82
2023/08/09 08:41:28;;;;;;;0.20;0.20;;;26.10;59.40;;;;;;6307045;22;20165;-83
2023/08/09 08:43:58;;;;;;;0.20;0.20;;;26.10;59.30;;;;;;6307053;22;20169;-83
2023/08/09 08:46:29;;;;;;;0.57;0.57;;;26.20;58.80;;;;;;6306227;22;20167;-83
2023/08/09 08:49:01;;;;;;;0.20;0.20;;;26.20;57.80;;;;;;6306074;22;20161;-84
2023/08/09 08:51:30;;;;;;;0.50;0.38;;;26.30;58.40;;;;;;6306803;22;20188;-83
2023/08/09 08:54:02;;;;;;;0.20;0.20;;;26.30;57.90;;;;;;6307052;22;20173;-83
2023/08/09 08:56:31;;;;;;;0.28;0.28;;;26.40;58.10;;;;;;6307491;22;20171;-84
2023/08/09 08:59:02;;;;;;;0.20;0.20;;;26.40;57.90;;;;;;6306209;22;20641;-83
2023/08/09 09:01:32;;;;;;;0.30;0.30;;;26.50;57.90;;;;;;6306467;22;20192;-83
2023/08/09 09:04:01;;;;;;;2.45;0.47;;;26.60;57.90;;;;;;6308159;22;20173;-83
2023/08/09 09:06:30;;;;;;;0.20;0.20;;;26.60;57.50;;;;;;6309071;22;20174;-81
2023/08/09 09:08:59;;;;;;;0.20;0.20;;;26.60;56.80;;;;;;6304686;22;20608;-86
2023/08/09 09:11:28;;;;;;;0.52;0.30;;;26.60;56.60;;;;;;6301154;22;20161;-81
2023/08/09 09:13:57;;;;;;;0.13;0.13;;;26.70;57.00;;;;;;6276844;22;20208;-84
2023/08/09 09:16:27;;;;;;;0.20;0.20;;;26.70;56.60;;;;;;6304058;22;20161;-84
2023/08/09 09:18:56;;;;;;;0.20;0.20;;;26.60;56.30;;;;;;6304293;22;20501;-85
2023/08/09 09:21:32;;;;;;;0.20;0.20;;;26.60;56.50;;;;;;6304850;22;20175;-82
2023/08/09 09:24:05;;;;;;;0.20;0.20;;;26.70;56.30;;;;;;6304082;22;20161;-83
2023/08/09 09:26:34;;;;;;;0.20;0.20;;;26.70;56.30;;;;;;6304720;22;20153;-84
2023/08/09 09:29:03;;;;;;;0.40;0.40;;;26.70;56.40;;;;;;6277766;22;20173;-83
2023/08/09 09:31:39;;;;;;;0.20;0.20;;;26.80;56.30;;;;;;6303753;22;20624;-81
2023/08/09 09:34:10;;;;;;;0.20;0.20;;;26.80;56.50;;;;;;6306117;22;20181;-85
2023/08/09 09:36:42;;;;;;;0.20;0.20;;;26.80;56.70;;;;;;6307232;22;20169;-83
2023/08/09 09:39:11;;;;;;;0.20;0.20;;;26.90;56.80;;;;;;6305745;22;20622;-84
2023/08/09 09:41:46;;;;;;;0.20;0.20;;;27.00;56.80;;;;;;6305697;22;20176;-88
2023/08/09 09:44:19;;;;;;;0.10;0.10;;;27.00;56.00;;;;;;6280006;22;20194;-83
2023/08/09 09:46:53;;;;;;;0.22;0.22;;;27.10;55.50;;;;;;6305835;22;20162;-84
2023/08/09 09:49:22;;;;;;;1.02;0.93;;;27.20;55.80;;;;;;6305021;22;20156;-82
2023/08/09 09:51:52;;;;;;;0.20;0.20;;;27.20;55.70;;;;;;6303801;22;20173;-83
2023/08/09 09:54:22;;;;;;;0.20;0.20;;;27.20;55.60;;;;;;6305405;22;20193;-83
2023/08/09 09:56:51;;;;;;;0.20;0.20;;;27.20;55.50;;;;;;6306085;22;20263;-83
2023/08/09 09:59:20;;;;;;;0.20;0.20;;;27.10;55.40;;;;;;6278920;22;20177;-82
2023/08/09 10:01:51;;;;;;;1.52;0.75;;;27.10;55.40;;;;;;6305477;22;20248;-82
2023/08/09 10:04:21;;;;;;;0.30;0.30;;;27.10;55.50;;;;;;6305988;22;20166;-84
2023/08/09 10:06:51;;;;;;;0.30;0.30;;;27.10;55.70;;;;;;6306204;22;20165;-83
2023/08/09 10:09:21;;;;;;;0.30;0.30;;;27.10;55.40;;;;;;6306434;22;20514;-81
2023/08/09 10:11:53;;;;;;;0.43;0.43;;;27.20;55.60;;;;;;6306099;22;20164;-82
2023/08/09 10:14:26;;;;;;;0.20;0.20;;;27.10;55.00;;;;;;6306503;22;20234;-84
2023/08/09 10:16:59;;;;;;;1.92;1.10;;;27.10;54.50;;;;;;6305843;22;20218;-82
2023/08/09 10:19:43;;;;;;;0.20;0.20;;;27.10;55.00;;;;;;6306010;22;20165;-82
2023/08/09 10:22:13;;;;;;;0.20;0.20;;;27.10;55.30;;;;;;6279893;22;20490;-86
2023/08/09 10:24:47;;;;;;;0.20;0.20;;;27.10;55.40;;;;;;6307399;22;20211;-81
2023/08/09 10:27:35;;;;;;;2.83;0.30;;;27.10;55.40;;;;;;6306813;22;20165;-83
2023/08/09 10:30:06;;;;;;;0.20;0.20;;;27.20;55.40;;;;;;6306441;22;20243;-82
2023/08/09 10:32:51;;;;;;;0.20;0.20;;;27.20;55.00;;;;;;6305627;22;20383;-82
2023/08/09 10:35:22;;;;;;;0.20;0.20;;;27.20;55.20;;;;;;6307262;22;20236;-83
2023/08/09 10:37:50;;;;;;;0.20;0.20;;;27.20;55.20;;;;;;6306743;22;20157;-82
2023/08/09 10:40:21;;;;;;;0.20;0.20;;;27.20;55.20;;;;;;6305746;22;20623;-83
2023/08/09 10:42:53;;;;;;;0.40;0.30;;;27.20;55.30;;;;;;6306216;22;20165;-84
2023/08/09 10:45:24;;;;;;;0.28;0.28;;;27.30;55.50;;;;;;6307677;22;20490;-84
2023/08/09 10:47:54;;;;;;;0.20;0.20;;;27.30;55.10;;;;;;6306598;22;20175;-82
2023/08/09 10:53:23;;;;;;;0.20;0.20;;;27.40;55.10;;;;;;6307849;22;20676;-83
2023/08/09 10:55:57;;;;;;;0.20;0.20;;;27.40;55.00;;;;;;6252119;22;20176;-83
2023/08/09 10:58:33;;;;;;;0.20;0.20;;;27.50;55.10;;;;;;6286360;22;20165;-84
2023/08/09 11:01:03;;;;;;;0.20;0.20;;;27.50;54.50;;;;;;6321332;22;20240;-84
2023/08/09 11:03:34;;;;;;;0.85;0.55;;;27.60;53.80;;;;;;6321381;22;20560;-89
2023/08/09 11:06:04;;;;;;;0.20;0.20;;;27.60;53.90;;;;;;6321603;22;20165;-86
2023/08/09 11:08:33;;;;;;;0.20;0.20;;;27.70;54.10;;;;;;6323151;22;20191;-86
2023/08/09 11:11:02;;;;;;;0.38;0.38;;;27.70;53.90;;;;;;6320736;22;20219;-86
2023/08/09 11:13:32;;;;;;;0.40;0.40;;;27.60;53.80;;;;;;6323376;22;20268;-86
2023/08/09 11:16:08;;;;;;;0.10;0.10;;;27.70;54.10;;;;;;6321717;22;20172;-86
2023/08/09 11:18:38;;;;;;;0.20;0.20;;;27.70;54.40;;;;;;6323312;22;20180;-86
2023/08/09 11:21:07;;;;;;;0.10;0.10;;;27.70;54.40;;;;;;6319415;22;20181;-87
2023/08/09 11:23:35;;;;;;;0.20;0.20;;;27.70;54.30;;;;;;6323465;22;20170;-86
2023/08/09 11:26:04;;;;;;;0.20;0.20;;;27.80;54.40;;;;;;6321638;22;20169;-85
2023/08/09 11:28:35;;;;;;;0.40;0.40;;;27.70;54.30;;;;;;6305385;22;20168;-86
2023/08/09 11:31:03;;;;;;;0.20;0.20;;;27.80;54.00;;;;;;6304594;22;20192;-86
2023/08/09 11:33:32;;;;;;;0.38;0.38;;;27.70;53.90;;;;;;6306193;22;20192;-87
2023/08/09 11:36:02;;;;;;;0.13;0.13;;;27.70;54.10;;;;;;6303924;22;20494;-87
2023/08/09 11:38:30;;;;;;;0.20;0.20;;;27.70;54.20;;;;;;6303131;22;20169;-86
2023/08/09 11:40:59;;;;;;;0.20;0.20;;;27.70;54.10;;;;;;6303835;22;20633;-87
2023/08/09 11:43:31;;;;;;;0.20;0.20;;;27.80;54.30;;;;;;6303329;22;20177;-86
2023/08/09 11:45:59;;;;;;;0.20;0.20;;;27.80;53.90;;;;;;6304448;22;20542;-85
2023/08/09 11:48:30;;;;;;;0.15;0.15;;;27.90;52.80;;;;;;6305803;22;20219;-85
2023/08/09 11:51:05;;;;;;;0.38;0.38;;;28.00;51.90;;;;;;6304020;22;20176;-86
2023/08/09 11:53:35;;;;;;;0.30;0.30;;;28.10;52.60;;;;;;6305136;22;20176;-86
2023/08/09 11:56:05;;;;;;;0.20;0.20;;;28.20;52.60;;;;;;6305330;22;20682;-87
2023/08/09 11:58:36;;;;;;;0.30;0.30;;;28.30;52.60;;;;;;6306542;22;20435;-87
2023/08/09 12:01:19;;;;;;;0.20;0.20;;;28.40;51.80;;;;;;6304228;22;20177;-86
2023/08/09 12:03:49;;;;;;;0.20;0.20;;;28.60;51.90;;;;;;6305177;22;20149;-87
2023/08/09 12:06:33;;;;;;;0.10;0.10;;;28.60;51.90;;;;;;6305030;22;20211;-88
2023/08/09 12:09:25;;;;;;;0.28;0.28;;;28.70;51.90;;;;;;6305407;22;20240;-89
2023/08/09 12:11:55;;;;;;;0.20;0.20;;;28.60;50.70;;;;;;6304600;22;20161;-87
2023/08/09 12:14:23;;;;;;;0.20;0.20;;;28.60;50.50;;;;;;6305864;22;20191;-87
2023/08/09 12:16:51;;;;;;;0.10;0.10;;;28.50;50.80;;;;;;6303675;22;20188;-88
2023/08/09 12:19:20;;;;;;;0.20;0.20;;;28.60;51.30;;;;;;6304924;22;20208;-87
2023/08/09 12:21:50;;;;;;;0.20;0.20;;;28.50;51.60;;;;;;6304992;22;20165;-85
2023/08/09 12:24:18;;;;;;;0.52;0.20;;;28.60;51.70;;;;;;6302635;22;20604;-83
2023/08/09 12:26:47;;;;;;;0.28;0.28;;;28.70;51.70;;;;;;6301679;22;20176;-87
2023/08/09 12:29:15;;;;;;;0.20;0.20;;;28.70;51.00;;;;;;6301882;22;20169;-84
2023/08/09 12:31:44;;;;;;;0.22;0.22;;;28.80;51.30;;;;;;6303975;22;20169;-85
2023/08/09 12:34:13;;;;;;;0.20;0.20;;;28.80;51.50;;;;;;6302519;22;20199;-86
2023/08/09 12:36:42;;;;;;;0.20;0.20;;;28.90;51.30;;;;;;6304574;22;20165;-84
2023/08/09 12:39:14;;;;;;;0.28;0.28;;;28.90;51.50;;;;;;6303214;22;20175;-85
2023/08/09 12:41:43;;;;;;;0.38;0.38;;;28.90;51.40;;;;;;6304253;22;20488;-85
2023/08/09 12:44:12;;;;;;;0.32;0.32;;;28.90;51.50;;;;;;6302442;22;20165;-88
2023/08/09 12:46:41;;;;;;;0.20;0.20;;;28.80;52.00;;;;;;6304319;22;20176;-83
2023/08/09 12:49:10;;;;;;;0.20;0.20;;;28.80;51.30;;;;;;6301281;22;20177;-86
2023/08/09 12:51:39;;;;;;;0.30;0.30;;;28.80;51.30;;;;;;6302367;22;20161;-86
2023/08/09 12:54:09;;;;;;;0.28;0.25;;;28.90;51.00;;;;;;6303240;22;20543;-86
2023/08/09 12:56:40;;;;;;;0.20;0.20;;;29.00;51.00;;;;;;6302920;22;20167;-86
2023/08/09 12:59:08;;;;;;;0.20;0.20;;;29.00;51.00;;;;;;6303246;22;20621;-86
2023/08/09 13:01:37;;;;;;;0.40;0.40;;;29.10;50.60;;;;;;6305331;22;20497;-89
2023/08/09 13:04:07;;;;;;;0.20;0.20;;;29.20;51.10;;;;;;6304250;22;20575;-88